sensor_id;sensor_type;location;lat;lon;timestamp;temperature;humidity
5246;DHT22;54412;51.206;6.888;2022-12-16T00:01:12;-3.00;99.90
5246;DHT22;54412;51.206;6.888;2022-12-16T00:03:55;-2.90;99.90
5246;DHT22;54412;51.206;6.888;2022-12-16T00:06:23;-2.90;99.90
5246;DHT22;54412;51.206;6.888;2022-12-16T00:08:50;-3.30;99.90
5246;DHT22;54412;51.206;6.888;2022-12-16T00:11:16;-3.30;99.90
5246;DHT22;54412;51.206;6.888;2022-12-16T00:13:42;-3.20;99.90
5246;DHT22;54412;51.206;6.888;2022-12-16T00:16:13;-3.30;99.90
5246;DHT22;54412;51.206;6.888;2022-12-16T00:18:40;-3.30;99.90
5246;DHT22;54412;51.206;6.888;2022-12-16T00:21:06;-3.20;99.90
5246;DHT22;54412;51.206;6.888;2022-12-16T00:23:33;-3.10;99.90
5246;DHT22;54412;51.206;6.888;2022-12-16T00:26:00;-3.10;99.90
5246;DHT22;54412;51.206;6.888;2022-12-16T00:28:27;-3.10;99.90
5246;DHT22;54412;51.206;6.888;2022-12-16T00:30:54;-3.10;99.90
5246;DHT22;54412;51.206;6.888;2022-12-16T00:33:21;-3.40;99.90
5246;DHT22;54412;51.206;6.888;2022-12-16T00:35:49;-3.40;99.90
5246;DHT22;54412;51.206;6.888;2022-12-16T00:38:15;-3.30;99.90
5246;DHT22;54412;51.206;6.888;2022-12-16T00:40:42;-3.40;99.90
5246;DHT22;54412;51.206;6.888;2022-12-16T00:43:08;-3.30;99.90
5246;DHT22;54412;51.206;6.888;2022-12-16T00:45:35;-3.20;99.90
5246;DHT22;54412;51.206;6.888;2022-12-16T00:48:01;-3.00;99.90
5246;DHT22;54412;51.206;6.888;2022-12-16T00:50:27;-3.00;99.90
5246;DHT22;54412;51.206;6.888;2022-12-16T00:52:52;-2.90;99.90
5246;DHT22;54412;51.206;6.888;2022-12-16T00:55:18;-3.10;99.90
5246;DHT22;54412;51.206;6.888;2022-12-16T00:57:44;-2.90;99.90
5246;DHT22;54412;51.206;6.888;2022-12-16T01:00:12;-2.90;99.90
5246;DHT22;54412;51.206;6.888;2022-12-16T01:02:41;-3.00;99.90
5246;DHT22;54412;51.206;6.888;2022-12-16T01:05:10;-2.90;99.90
5246;DHT22;54412;51.206;6.888;2022-12-16T01:07:37;-2.90;99.90
5246;DHT22;54412;51.206;6.888;2022-12-16T01:10:04;-3.00;99.90
5246;DHT22;54412;51.206;6.888;2022-12-16T01:12:32;-3.00;99.90
5246;DHT22;54412;51.206;6.888;2022-12-16T01:14:58;-3.00;99.90
5246;DHT22;54412;51.206;6.888;2022-12-16T01:17:25;-2.90;99.90
5246;DHT22;54412;51.206;6.888;2022-12-16T01:19:53;-2.90;99.90
5246;DHT22;54412;51.206;6.888;2022-12-16T01:22:20;-2.90;99.90
5246;DHT22;54412;51.206;6.888;2022-12-16T01:24:46;-2.90;99.90
5246;DHT22;54412;51.206;6.888;2022-12-16T01:27:13;-2.80;99.90
5246;DHT22;54412;51.206;6.888;2022-12-16T01:29:40;-2.90;99.90
5246;DHT22;54412;51.206;6.888;2022-12-16T01:32:08;-2.90;99.90
5246;DHT22;54412;51.206;6.888;2022-12-16T01:34:37;-2.90;99.90
5246;DHT22;54412;51.206;6.888;2022-12-16T01:37:02;-2.90;99.90
5246;DHT22;54412;51.206;6.888;2022-12-16T01:39:28;-2.90;99.90
5246;DHT22;54412;51.206;6.888;2022-12-16T01:41:55;-2.90;99.90
5246;DHT22;54412;51.206;6.888;2022-12-16T01:44:23;-2.80;99.90
5246;DHT22;54412;51.206;6.888;2022-12-16T01:46:55;-2.90;99.90
5246;DHT22;54412;51.206;6.888;2022-12-16T01:49:27;-3.10;99.90
5246;DHT22;54412;51.206;6.888;2022-12-16T01:52:03;-2.90;99.90
5246;DHT22;54412;51.206;6.888;2022-12-16T01:54:41;-3.00;99.90
5246;DHT22;54412;51.206;6.888;2022-12-16T01:57:19;-3.10;99.90
5246;DHT22;54412;51.206;6.888;2022-12-16T01:59:50;-3.10;99.90
5246;DHT22;54412;51.206;6.888;2022-12-16T02:02:18;-3.00;99.90
5246;DHT22;54412;51.206;6.888;2022-12-16T02:04:45;-3.00;99.90
5246;DHT22;54412;51.206;6.888;2022-12-16T02:07:29;-3.00;99.90
5246;DHT22;54412;51.206;6.888;2022-12-16T02:09:55;-3.00;99.90
5246;DHT22;54412;51.206;6.888;2022-12-16T02:12:27;-3.00;99.90
5246;DHT22;54412;51.206;6.888;2022-12-16T02:15:13;-3.10;99.90
5246;DHT22;54412;51.206;6.888;2022-12-16T02:18:37;-3.10;99.90
5246;DHT22;54412;51.206;6.888;2022-12-16T02:24:37;-3.00;99.90
5246;DHT22;54412;51.206;6.888;2022-12-16T02:27:38;-3.10;99.90
5246;DHT22;54412;51.206;6.888;2022-12-16T02:32:53;-3.30;99.90
5246;DHT22;54412;51.206;6.888;2022-12-16T02:35:41;-3.30;99.90
5246;DHT22;54412;51.206;6.888;2022-12-16T02:38:26;-3.30;99.90
5246;DHT22;54412;51.206;6.888;2022-12-16T02:41:04;-3.20;99.90
5246;DHT22;54412;51.206;6.888;2022-12-16T02:46:28;-3.10;99.90
5246;DHT22;54412;51.206;6.888;2022-12-16T02:49:07;-3.20;99.90
5246;DHT22;54412;51.206;6.888;2022-12-16T02:51:58;-3.20;99.90
5246;DHT22;54412;51.206;6.888;2022-12-16T02:54:25;-3.30;99.90
5246;DHT22;54412;51.206;6.888;2022-12-16T02:57:30;-3.30;99.90
5246;DHT22;54412;51.206;6.888;2022-12-16T03:00:10;-3.30;99.90
5246;DHT22;54412;51.206;6.888;2022-12-16T03:03:05;-3.20;99.90
5246;DHT22;54412;51.206;6.888;2022-12-16T03:05:46;-3.30;99.90
5246;DHT22;54412;51.206;6.888;2022-12-16T03:08:34;-3.50;99.90
5246;DHT22;54412;51.206;6.888;2022-12-16T03:11:04;-3.40;99.90
5246;DHT22;54412;51.206;6.888;2022-12-16T03:13:38;-3.40;99.90
5246;DHT22;54412;51.206;6.888;2022-12-16T03:16:11;-3.40;99.90
5246;DHT22;54412;51.206;6.888;2022-12-16T03:18:42;-3.30;99.90
5246;DHT22;54412;51.206;6.888;2022-12-16T03:21:13;-3.40;99.90
5246;DHT22;54412;51.206;6.888;2022-12-16T03:23:46;-3.60;99.90
5246;DHT22;54412;51.206;6.888;2022-12-16T03:26:30;-3.70;99.90
5246;DHT22;54412;51.206;6.888;2022-12-16T03:29:15;-3.80;99.90
5246;DHT22;54412;51.206;6.888;2022-12-16T03:32:30;-3.70;99.90
5246;DHT22;54412;51.206;6.888;2022-12-16T03:35:08;-3.50;99.90
5246;DHT22;54412;51.206;6.888;2022-12-16T03:37:42;-3.40;99.90
5246;DHT22;54412;51.206;6.888;2022-12-16T03:40:11;-3.40;99.90
5246;DHT22;54412;51.206;6.888;2022-12-16T03:42:38;-3.40;99.90
5246;DHT22;54412;51.206;6.888;2022-12-16T03:45:10;-3.50;99.90
5246;DHT22;54412;51.206;6.888;2022-12-16T03:47:41;-3.40;99.90
5246;DHT22;54412;51.206;6.888;2022-12-16T03:50:07;-3.30;99.90
5246;DHT22;54412;51.206;6.888;2022-12-16T03:52:33;-3.40;99.90
5246;DHT22;54412;51.206;6.888;2022-12-16T03:54:59;-3.40;99.90
5246;DHT22;54412;51.206;6.888;2022-12-16T03:57:25;-3.40;99.90
5246;DHT22;54412;51.206;6.888;2022-12-16T03:59:51;-3.30;99.90
5246;DHT22;54412;51.206;6.888;2022-12-16T04:02:17;-3.30;99.90
5246;DHT22;54412;51.206;6.888;2022-12-16T04:04:43;-3.40;99.90
5246;DHT22;54412;51.206;6.888;2022-12-16T04:07:08;-3.50;99.90
5246;DHT22;54412;51.206;6.888;2022-12-16T04:09:47;-3.70;99.90
5246;DHT22;54412;51.206;6.888;2022-12-16T04:12:13;-4.00;99.90
5246;DHT22;54412;51.206;6.888;2022-12-16T04:14:58;-4.00;99.90
5246;DHT22;54412;51.206;6.888;2022-12-16T04:17:42;-3.80;99.90
5246;DHT22;54412;51.206;6.888;2022-12-16T04:20:38;-3.70;99.90
5246;DHT22;54412;51.206;6.888;2022-12-16T04:23:27;-3.60;99.90
5246;DHT22;54412;51.206;6.888;2022-12-16T04:26:13;-3.50;99.90
5246;DHT22;54412;51.206;6.888;2022-12-16T04:28:39;-3.40;99.90
5246;DHT22;54412;51.206;6.888;2022-12-16T04:31:05;-3.50;99.90
5246;DHT22;54412;51.206;6.888;2022-12-16T04:33:31;-3.40;99.90
5246;DHT22;54412;51.206;6.888;2022-12-16T04:36:15;-3.50;99.90
5246;DHT22;54412;51.206;6.888;2022-12-16T04:38:59;-3.40;99.90
5246;DHT22;54412;51.206;6.888;2022-12-16T04:41:43;-3.40;99.90
5246;DHT22;54412;51.206;6.888;2022-12-16T04:44:27;-3.40;99.90
5246;DHT22;54412;51.206;6.888;2022-12-16T04:47:12;-3.50;99.90
5246;DHT22;54412;51.206;6.888;2022-12-16T04:49:56;-3.50;99.90
5246;DHT22;54412;51.206;6.888;2022-12-16T04:52:40;-3.60;99.90
5246;DHT22;54412;51.206;6.888;2022-12-16T04:55:24;-3.50;99.90
5246;DHT22;54412;51.206;6.888;2022-12-16T04:58:08;-3.50;99.90
5246;DHT22;54412;51.206;6.888;2022-12-16T05:00:52;-3.50;99.90
5246;DHT22;54412;51.206;6.888;2022-12-16T05:03:36;-3.70;99.90
5246;DHT22;54412;51.206;6.888;2022-12-16T05:06:21;-3.60;99.90
5246;DHT22;54412;51.206;6.888;2022-12-16T05:09:05;-3.70;99.90
5246;DHT22;54412;51.206;6.888;2022-12-16T05:11:51;-3.80;99.90
5246;DHT22;54412;51.206;6.888;2022-12-16T05:14:35;-3.70;99.90
5246;DHT22;54412;51.206;6.888;2022-12-16T05:17:20;-3.90;99.90
5246;DHT22;54412;51.206;6.888;2022-12-16T05:20:05;-4.10;99.90
5246;DHT22;54412;51.206;6.888;2022-12-16T05:22:50;-4.00;99.90
5246;DHT22;54412;51.206;6.888;2022-12-16T05:25:34;-4.10;99.90
5246;DHT22;54412;51.206;6.888;2022-12-16T05:28:18;-3.90;99.90
5246;DHT22;54412;51.206;6.888;2022-12-16T05:31:03;-3.80;99.90
5246;DHT22;54412;51.206;6.888;2022-12-16T05:33:47;-3.70;99.90
5246;DHT22;54412;51.206;6.888;2022-12-16T05:36:31;-3.70;99.90
5246;DHT22;54412;51.206;6.888;2022-12-16T05:39:15;-3.70;99.90
5246;DHT22;54412;51.206;6.888;2022-12-16T05:42:00;-3.70;99.90
5246;DHT22;54412;51.206;6.888;2022-12-16T05:44:44;-4.00;99.90
5246;DHT22;54412;51.206;6.888;2022-12-16T05:47:28;-4.10;99.90
5246;DHT22;54412;51.206;6.888;2022-12-16T05:50:12;-4.00;99.90
5246;DHT22;54412;51.206;6.888;2022-12-16T05:52:57;-4.00;99.90
5246;DHT22;54412;51.206;6.888;2022-12-16T05:55:42;-3.90;99.90
5246;DHT22;54412;51.206;6.888;2022-12-16T05:58:27;-4.10;99.90
5246;DHT22;54412;51.206;6.888;2022-12-16T06:01:12;-4.20;99.90
5246;DHT22;54412;51.206;6.888;2022-12-16T06:03:57;-4.20;99.90
5246;DHT22;54412;51.206;6.888;2022-12-16T06:06:41;-4.10;99.90
5246;DHT22;54412;51.206;6.888;2022-12-16T06:09:26;-4.10;99.90
5246;DHT22;54412;51.206;6.888;2022-12-16T06:12:11;-3.90;99.90
5246;DHT22;54412;51.206;6.888;2022-12-16T06:14:55;-3.80;99.90
5246;DHT22;54412;51.206;6.888;2022-12-16T06:17:46;-3.90;99.90
5246;DHT22;54412;51.206;6.888;2022-12-16T06:20:32;-3.90;99.90
5246;DHT22;54412;51.206;6.888;2022-12-16T06:23:17;-3.80;99.90
5246;DHT22;54412;51.206;6.888;2022-12-16T06:26:01;-3.80;99.90
5246;DHT22;54412;51.206;6.888;2022-12-16T06:28:46;-3.80;99.90
5246;DHT22;54412;51.206;6.888;2022-12-16T06:31:30;-3.70;99.90
5246;DHT22;54412;51.206;6.888;2022-12-16T06:34:14;-4.00;99.90
5246;DHT22;54412;51.206;6.888;2022-12-16T06:36:58;-4.10;99.90
5246;DHT22;54412;51.206;6.888;2022-12-16T06:39:42;-4.20;99.90
5246;DHT22;54412;51.206;6.888;2022-12-16T06:42:26;-4.10;99.90
5246;DHT22;54412;51.206;6.888;2022-12-16T06:45:12;-4.20;99.90
5246;DHT22;54412;51.206;6.888;2022-12-16T06:47:56;-4.00;99.90
5246;DHT22;54412;51.206;6.888;2022-12-16T06:50:40;-4.10;99.90
5246;DHT22;54412;51.206;6.888;2022-12-16T06:53:24;-4.20;99.90
5246;DHT22;54412;51.206;6.888;2022-12-16T06:56:08;-4.20;99.90
5246;DHT22;54412;51.206;6.888;2022-12-16T06:58:52;-4.20;99.90
5246;DHT22;54412;51.206;6.888;2022-12-16T07:01:37;-4.10;99.90
5246;DHT22;54412;51.206;6.888;2022-12-16T07:04:21;-4.10;99.90
5246;DHT22;54412;51.206;6.888;2022-12-16T07:07:05;-4.10;99.90
5246;DHT22;54412;51.206;6.888;2022-12-16T07:09:49;-4.10;99.90
5246;DHT22;54412;51.206;6.888;2022-12-16T07:12:33;-4.40;99.90
5246;DHT22;54412;51.206;6.888;2022-12-16T07:15:17;-4.60;99.90
5246;DHT22;54412;51.206;6.888;2022-12-16T07:18:02;-4.50;99.90
5246;DHT22;54412;51.206;6.888;2022-12-16T07:20:46;-4.30;99.90
5246;DHT22;54412;51.206;6.888;2022-12-16T07:23:30;-4.30;99.90
5246;DHT22;54412;51.206;6.888;2022-12-16T07:26:14;-4.20;99.90
5246;DHT22;54412;51.206;6.888;2022-12-16T07:28:58;-4.30;99.90
5246;DHT22;54412;51.206;6.888;2022-12-16T07:31:42;-4.20;99.90
5246;DHT22;54412;51.206;6.888;2022-12-16T07:34:26;-4.20;99.90
5246;DHT22;54412;51.206;6.888;2022-12-16T07:37:10;-4.20;99.90
5246;DHT22;54412;51.206;6.888;2022-12-16T07:39:54;-4.10;99.90
5246;DHT22;54412;51.206;6.888;2022-12-16T07:42:40;-4.20;99.90
5246;DHT22;54412;51.206;6.888;2022-12-16T07:45:25;-4.20;99.90
5246;DHT22;54412;51.206;6.888;2022-12-16T07:48:10;-4.20;99.90
5246;DHT22;54412;51.206;6.888;2022-12-16T07:50:54;-4.10;99.90
5246;DHT22;54412;51.206;6.888;2022-12-16T07:53:38;-4.10;99.90
5246;DHT22;54412;51.206;6.888;2022-12-16T07:56:22;-4.10;99.90
5246;DHT22;54412;51.206;6.888;2022-12-16T07:59:06;-4.10;99.90
5246;DHT22;54412;51.206;6.888;2022-12-16T08:01:50;-4.10;99.90
5246;DHT22;54412;51.206;6.888;2022-12-16T08:04:34;-4.10;99.90
5246;DHT22;54412;51.206;6.888;2022-12-16T08:07:18;-4.10;99.90
5246;DHT22;54412;51.206;6.888;2022-12-16T08:10:03;-3.90;99.90
5246;DHT22;54412;51.206;6.888;2022-12-16T08:12:48;-3.90;99.90
5246;DHT22;54412;51.206;6.888;2022-12-16T08:15:32;-3.90;99.90
5246;DHT22;54412;51.206;6.888;2022-12-16T08:18:16;-3.80;99.90
5246;DHT22;54412;51.206;6.888;2022-12-16T08:21:00;-3.80;99.90
5246;DHT22;54412;51.206;6.888;2022-12-16T08:23:44;-3.90;99.90
5246;DHT22;54412;51.206;6.888;2022-12-16T08:26:28;-3.90;99.90
5246;DHT22;54412;51.206;6.888;2022-12-16T08:29:12;-4.00;99.90
5246;DHT22;54412;51.206;6.888;2022-12-16T08:31:57;-3.80;99.90
5246;DHT22;54412;51.206;6.888;2022-12-16T08:34:41;-3.60;99.90
5246;DHT22;54412;51.206;6.888;2022-12-16T08:37:25;-3.60;99.90
5246;DHT22;54412;51.206;6.888;2022-12-16T08:40:09;-3.80;99.90
5246;DHT22;54412;51.206;6.888;2022-12-16T08:42:57;-3.90;99.90
5246;DHT22;54412;51.206;6.888;2022-12-16T08:45:41;-3.80;99.90
5246;DHT22;54412;51.206;6.888;2022-12-16T08:48:26;-3.60;99.90
5246;DHT22;54412;51.206;6.888;2022-12-16T08:51:11;-3.40;99.90
5246;DHT22;54412;51.206;6.888;2022-12-16T08:53:55;-3.20;99.90
5246;DHT22;54412;51.206;6.888;2022-12-16T08:56:40;-3.10;99.90
5246;DHT22;54412;51.206;6.888;2022-12-16T08:59:25;-3.10;99.90
5246;DHT22;54412;51.206;6.888;2022-12-16T09:02:10;-3.00;99.90
5246;DHT22;54412;51.206;6.888;2022-12-16T09:04:54;-2.60;99.90
5246;DHT22;54412;51.206;6.888;2022-12-16T09:07:39;-2.60;99.90
5246;DHT22;54412;51.206;6.888;2022-12-16T09:10:23;-2.50;99.90
5246;DHT22;54412;51.206;6.888;2022-12-16T09:13:14;-2.40;99.90
5246;DHT22;54412;51.206;6.888;2022-12-16T09:15:59;-2.30;99.90
5246;DHT22;54412;51.206;6.888;2022-12-16T09:18:44;-2.00;99.90
5246;DHT22;54412;51.206;6.888;2022-12-16T09:21:29;-1.90;99.90
5246;DHT22;54412;51.206;6.888;2022-12-16T09:24:13;-1.90;99.90
5246;DHT22;54412;51.206;6.888;2022-12-16T09:26:58;-1.90;99.90
5246;DHT22;54412;51.206;6.888;2022-12-16T09:29:42;-2.00;99.90
5246;DHT22;54412;51.206;6.888;2022-12-16T09:32:26;-1.60;99.90
5246;DHT22;54412;51.206;6.888;2022-12-16T09:35:10;-1.40;99.90
5246;DHT22;54412;51.206;6.888;2022-12-16T09:37:55;-1.70;99.90
5246;DHT22;54412;51.206;6.888;2022-12-16T09:40:40;-1.90;99.90
5246;DHT22;54412;51.206;6.888;2022-12-16T09:47:00;-1.30;99.90
5246;DHT22;54412;51.206;6.888;2022-12-16T09:49:58;-1.10;99.90
5246;DHT22;54412;51.206;6.888;2022-12-16T09:52:56;-0.50;99.90
5246;DHT22;54412;51.206;6.888;2022-12-16T09:55:45;-0.60;99.90
5246;DHT22;54412;51.206;6.888;2022-12-16T09:58:35;-0.60;99.90
5246;DHT22;54412;51.206;6.888;2022-12-16T10:01:26;-0.40;99.90
5246;DHT22;54412;51.206;6.888;2022-12-16T10:04:19;-0.60;99.90
5246;DHT22;54412;51.206;6.888;2022-12-16T10:07:08;-0.60;99.90
5246;DHT22;54412;51.206;6.888;2022-12-16T10:10:15;-0.20;99.90
5246;DHT22;54412;51.206;6.888;2022-12-16T10:16:36;-0.10;99.90
5246;DHT22;54412;51.206;6.888;2022-12-16T10:19:57;-0.10;99.90
5246;DHT22;54412;51.206;6.888;2022-12-16T10:22:55;0.00;99.90
5246;DHT22;54412;51.206;6.888;2022-12-16T10:25:57;0.10;99.90
5246;DHT22;54412;51.206;6.888;2022-12-16T10:28:48;0.20;99.90
5246;DHT22;54412;51.206;6.888;2022-12-16T10:31:38;0.30;99.90
5246;DHT22;54412;51.206;6.888;2022-12-16T10:34:29;0.40;99.90
5246;DHT22;54412;51.206;6.888;2022-12-16T10:37:33;0.30;99.90
5246;DHT22;54412;51.206;6.888;2022-12-16T10:40:28;0.50;99.90
5246;DHT22;54412;51.206;6.888;2022-12-16T10:43:46;0.50;99.90
5246;DHT22;54412;51.206;6.888;2022-12-16T10:46:33;0.90;99.90
5246;DHT22;54412;51.206;6.888;2022-12-16T10:49:19;0.90;99.90
5246;DHT22;54412;51.206;6.888;2022-12-16T10:52:04;1.00;99.90
5246;DHT22;54412;51.206;6.888;2022-12-16T10:55:14;1.20;99.90
5246;DHT22;54412;51.206;6.888;2022-12-16T11:01:27;1.40;99.90
5246;DHT22;54412;51.206;6.888;2022-12-16T11:04:32;1.50;99.90
5246;DHT22;54412;51.206;6.888;2022-12-16T11:07:49;1.50;99.90
5246;DHT22;54412;51.206;6.888;2022-12-16T11:10:38;1.40;99.90
5246;DHT22;54412;51.206;6.888;2022-12-16T11:19:24;1.80;99.90
5246;DHT22;54412;51.206;6.888;2022-12-16T11:22:18;1.70;99.90
5246;DHT22;54412;51.206;6.888;2022-12-16T11:31:03;2.20;99.90
5246;DHT22;54412;51.206;6.888;2022-12-16T11:33:52;2.30;99.90
5246;DHT22;54412;51.206;6.888;2022-12-16T11:36:39;2.30;99.90
5246;DHT22;54412;51.206;6.888;2022-12-16T11:39:26;2.20;99.90
5246;DHT22;54412;51.206;6.888;2022-12-16T11:42:33;2.30;99.90
5246;DHT22;54412;51.206;6.888;2022-12-16T11:45:19;2.50;99.90
5246;DHT22;54412;51.206;6.888;2022-12-16T11:51:28;2.80;99.90
5246;DHT22;54412;51.206;6.888;2022-12-16T11:54:26;2.50;99.90
5246;DHT22;54412;51.206;6.888;2022-12-16T11:57:21;2.40;99.90
5246;DHT22;54412;51.206;6.888;2022-12-16T12:00:22;2.80;99.90
5246;DHT22;54412;51.206;6.888;2022-12-16T12:03:14;2.90;99.90
5246;DHT22;54412;51.206;6.888;2022-12-16T12:06:27;3.00;99.90
5246;DHT22;54412;51.206;6.888;2022-12-16T12:09:21;3.30;99.90
5246;DHT22;54412;51.206;6.888;2022-12-16T12:12:31;3.60;99.90
5246;DHT22;54412;51.206;6.888;2022-12-16T12:18:40;4.10;99.90
5246;DHT22;54412;51.206;6.888;2022-12-16T12:22:00;4.20;99.90
5246;DHT22;54412;51.206;6.888;2022-12-16T12:25:04;4.30;99.90
5246;DHT22;54412;51.206;6.888;2022-12-16T12:31:11;4.70;99.90
5246;DHT22;54412;51.206;6.888;2022-12-16T12:37:27;4.70;99.90
5246;DHT22;54412;51.206;6.888;2022-12-16T12:44:02;5.00;99.90
5246;DHT22;54412;51.206;6.888;2022-12-16T12:46:59;5.00;99.90
5246;DHT22;54412;51.206;6.888;2022-12-16T12:49:58;5.00;99.90
5246;DHT22;54412;51.206;6.888;2022-12-16T12:56:47;5.20;99.90
5246;DHT22;54412;51.206;6.888;2022-12-16T12:59:57;5.10;99.90
5246;DHT22;54412;51.206;6.888;2022-12-16T13:02:50;5.40;99.90
5246;DHT22;54412;51.206;6.888;2022-12-16T13:05:57;5.30;99.90
5246;DHT22;54412;51.206;6.888;2022-12-16T13:15:03;5.20;99.90
5246;DHT22;54412;51.206;6.888;2022-12-16T13:18:12;5.10;99.90
5246;DHT22;54412;51.206;6.888;2022-12-16T13:24:47;5.50;99.90
5246;DHT22;54412;51.206;6.888;2022-12-16T13:27:54;5.40;99.90
5246;DHT22;54412;51.206;6.888;2022-12-16T13:30:40;5.50;99.90
5246;DHT22;54412;51.206;6.888;2022-12-16T13:33:49;5.60;99.90
5246;DHT22;54412;51.206;6.888;2022-12-16T13:36:35;5.50;99.90
5246;DHT22;54412;51.206;6.888;2022-12-16T13:39:28;5.10;99.90
5246;DHT22;54412;51.206;6.888;2022-12-16T13:48:48;3.60;99.90
5246;DHT22;54412;51.206;6.888;2022-12-16T13:54:37;4.20;99.90
5246;DHT22;54412;51.206;6.888;2022-12-16T13:57:29;3.20;99.90
5246;DHT22;54412;51.206;6.888;2022-12-16T14:00:21;2.70;99.90
5246;DHT22;54412;51.206;6.888;2022-12-16T14:03:26;2.60;99.90
5246;DHT22;54412;51.206;6.888;2022-12-16T14:06:23;2.30;99.90
5246;DHT22;54412;51.206;6.888;2022-12-16T14:09:29;2.00;99.90
5246;DHT22;54412;51.206;6.888;2022-12-16T14:12:54;1.80;99.90
5246;DHT22;54412;51.206;6.888;2022-12-16T14:16:00;1.50;99.90
5246;DHT22;54412;51.206;6.888;2022-12-16T14:19:07;1.40;99.90
5246;DHT22;54412;51.206;6.888;2022-12-16T14:25:26;1.20;99.90
5246;DHT22;54412;51.206;6.888;2022-12-16T14:28:33;1.30;99.90
5246;DHT22;54412;51.206;6.888;2022-12-16T14:31:34;1.30;99.90
5246;DHT22;54412;51.206;6.888;2022-12-16T14:37:20;1.20;99.90
5246;DHT22;54412;51.206;6.888;2022-12-16T14:40:29;1.20;99.90
5246;DHT22;54412;51.206;6.888;2022-12-16T14:43:20;1.20;99.90
5246;DHT22;54412;51.206;6.888;2022-12-16T14:49:22;1.10;99.90
5246;DHT22;54412;51.206;6.888;2022-12-16T14:52:29;1.00;99.90
5246;DHT22;54412;51.206;6.888;2022-12-16T14:55:28;1.10;99.90
5246;DHT22;54412;51.206;6.888;2022-12-16T14:58:18;1.00;99.90
5246;DHT22;54412;51.206;6.888;2022-12-16T15:01:13;1.10;99.90
5246;DHT22;54412;51.206;6.888;2022-12-16T15:04:13;0.90;99.90
5246;DHT22;54412;51.206;6.888;2022-12-16T15:07:03;0.70;99.90
5246;DHT22;54412;51.206;6.888;2022-12-16T15:09:54;0.70;99.90
5246;DHT22;54412;51.206;6.888;2022-12-16T15:12:43;0.80;99.90
5246;DHT22;54412;51.206;6.888;2022-12-16T15:15:33;0.90;99.90
5246;DHT22;54412;51.206;6.888;2022-12-16T15:18:27;1.00;99.90
5246;DHT22;54412;51.206;6.888;2022-12-16T15:21:15;1.20;99.90
5246;DHT22;54412;51.206;6.888;2022-12-16T15:23:59;1.40;99.90
5246;DHT22;54412;51.206;6.888;2022-12-16T15:26:43;1.70;99.90
5246;DHT22;54412;51.206;6.888;2022-12-16T15:29:40;1.50;99.90
5246;DHT22;54412;51.206;6.888;2022-12-16T15:35:32;2.00;99.90
5246;DHT22;54412;51.206;6.888;2022-12-16T15:38:27;2.00;99.90
5246;DHT22;54412;51.206;6.888;2022-12-16T15:41:36;1.90;99.90
5246;DHT22;54412;51.206;6.888;2022-12-16T15:44:26;2.00;99.90
5246;DHT22;54412;51.206;6.888;2022-12-16T15:47:31;2.20;99.90
5246;DHT22;54412;51.206;6.888;2022-12-16T15:50:23;2.20;99.90
5246;DHT22;54412;51.206;6.888;2022-12-16T15:53:59;2.50;99.90
5246;DHT22;54412;51.206;6.888;2022-12-16T15:56:24;2.60;99.90
5246;DHT22;54412;51.206;6.888;2022-12-16T16:02:19;2.10;99.90
5246;DHT22;54412;51.206;6.888;2022-12-16T16:05:19;1.60;99.90
5246;DHT22;54412;51.206;6.888;2022-12-16T16:08:06;1.50;99.90
5246;DHT22;54412;51.206;6.888;2022-12-16T16:10:53;1.30;99.90
5246;DHT22;54412;51.206;6.888;2022-12-16T16:13:37;1.50;99.90
5246;DHT22;54412;51.206;6.888;2022-12-16T16:16:21;1.30;99.90
5246;DHT22;54412;51.206;6.888;2022-12-16T16:19:15;1.50;99.90
5246;DHT22;54412;51.206;6.888;2022-12-16T16:22:12;1.30;99.90
5246;DHT22;54412;51.206;6.888;2022-12-16T16:24:59;1.30;99.90
5246;DHT22;54412;51.206;6.888;2022-12-16T16:27:44;1.10;99.90
5246;DHT22;54412;51.206;6.888;2022-12-16T16:30:28;1.10;99.90
5246;DHT22;54412;51.206;6.888;2022-12-16T16:33:13;1.20;99.90
5246;DHT22;54412;51.206;6.888;2022-12-16T16:35:57;1.30;99.90
5246;DHT22;54412;51.206;6.888;2022-12-16T16:38:41;1.20;99.90
5246;DHT22;54412;51.206;6.888;2022-12-16T16:41:25;1.00;99.90
5246;DHT22;54412;51.206;6.888;2022-12-16T16:44:09;1.10;99.90
5246;DHT22;54412;51.206;6.888;2022-12-16T16:46:53;1.00;99.90
5246;DHT22;54412;51.206;6.888;2022-12-16T16:49:41;1.20;99.90
5246;DHT22;54412;51.206;6.888;2022-12-16T16:52:28;1.10;99.90
5246;DHT22;54412;51.206;6.888;2022-12-16T16:55:18;1.10;99.90
5246;DHT22;54412;51.206;6.888;2022-12-16T16:58:09;1.10;99.90
5246;DHT22;54412;51.206;6.888;2022-12-16T17:00:57;1.00;99.90
5246;DHT22;54412;51.206;6.888;2022-12-16T17:03:41;1.00;99.90
5246;DHT22;54412;51.206;6.888;2022-12-16T17:06:26;1.00;99.90
5246;DHT22;54412;51.206;6.888;2022-12-16T17:09:10;1.10;99.90
5246;DHT22;54412;51.206;6.888;2022-12-16T17:11:56;0.90;99.90
5246;DHT22;54412;51.206;6.888;2022-12-16T17:14:40;0.90;99.90
5246;DHT22;54412;51.206;6.888;2022-12-16T17:17:24;0.90;99.90
5246;DHT22;54412;51.206;6.888;2022-12-16T17:20:13;0.80;99.90
5246;DHT22;54412;51.206;6.888;2022-12-16T17:22:59;0.90;99.90
5246;DHT22;54412;51.206;6.888;2022-12-16T17:25:43;1.00;99.90
5246;DHT22;54412;51.206;6.888;2022-12-16T17:28:28;1.00;99.90
5246;DHT22;54412;51.206;6.888;2022-12-16T17:31:12;1.10;99.90
5246;DHT22;54412;51.206;6.888;2022-12-16T17:33:56;1.00;99.90
5246;DHT22;54412;51.206;6.888;2022-12-16T17:36:40;1.00;99.90
5246;DHT22;54412;51.206;6.888;2022-12-16T17:39:25;0.90;99.90
5246;DHT22;54412;51.206;6.888;2022-12-16T17:42:09;0.90;99.90
5246;DHT22;54412;51.206;6.888;2022-12-16T17:44:53;0.80;99.90
5246;DHT22;54412;51.206;6.888;2022-12-16T17:47:36;0.70;99.90
5246;DHT22;54412;51.206;6.888;2022-12-16T17:50:21;0.70;99.90
5246;DHT22;54412;51.206;6.888;2022-12-16T17:53:05;0.80;99.90
5246;DHT22;54412;51.206;6.888;2022-12-16T17:55:49;0.80;99.90
5246;DHT22;54412;51.206;6.888;2022-12-16T17:58:35;0.90;99.90
5246;DHT22;54412;51.206;6.888;2022-12-16T18:01:21;1.00;99.90
5246;DHT22;54412;51.206;6.888;2022-12-16T18:04:07;1.20;99.90
5246;DHT22;54412;51.206;6.888;2022-12-16T18:06:51;1.10;99.90
5246;DHT22;54412;51.206;6.888;2022-12-16T18:09:36;1.20;99.90
5246;DHT22;54412;51.206;6.888;2022-12-16T18:12:20;1.00;99.90
5246;DHT22;54412;51.206;6.888;2022-12-16T18:15:05;1.00;99.90
5246;DHT22;54412;51.206;6.888;2022-12-16T18:17:51;0.70;99.90
5246;DHT22;54412;51.206;6.888;2022-12-16T18:20:35;0.70;99.90
5246;DHT22;54412;51.206;6.888;2022-12-16T18:23:20;0.80;99.90
5246;DHT22;54412;51.206;6.888;2022-12-16T18:26:07;1.10;99.90
5246;DHT22;54412;51.206;6.888;2022-12-16T18:28:52;1.30;99.90
5246;DHT22;54412;51.206;6.888;2022-12-16T18:31:38;1.30;99.90
5246;DHT22;54412;51.206;6.888;2022-12-16T18:34:22;1.20;99.90
5246;DHT22;54412;51.206;6.888;2022-12-16T18:37:06;1.20;99.90
5246;DHT22;54412;51.206;6.888;2022-12-16T18:39:53;1.00;99.90
5246;DHT22;54412;51.206;6.888;2022-12-16T18:42:37;1.40;99.90
5246;DHT22;54412;51.206;6.888;2022-12-16T18:45:21;1.50;99.90
5246;DHT22;54412;51.206;6.888;2022-12-16T18:48:05;1.30;99.90
5246;DHT22;54412;51.206;6.888;2022-12-16T18:50:57;1.00;99.90
5246;DHT22;54412;51.206;6.888;2022-12-16T18:53:43;1.00;99.90
5246;DHT22;54412;51.206;6.888;2022-12-16T18:56:28;0.80;99.90
5246;DHT22;54412;51.206;6.888;2022-12-16T18:59:13;0.80;99.90
5246;DHT22;54412;51.206;6.888;2022-12-16T19:01:57;0.90;99.90
5246;DHT22;54412;51.206;6.888;2022-12-16T19:04:41;0.90;99.90
5246;DHT22;54412;51.206;6.888;2022-12-16T19:07:25;1.00;99.90
5246;DHT22;54412;51.206;6.888;2022-12-16T19:10:10;0.80;99.90
5246;DHT22;54412;51.206;6.888;2022-12-16T19:12:55;0.80;99.90